EGQL/ADX METAR and TAF weather

Enter ICAO airport designator
Station Type Date Time Source
EGQL METAR 2020/07/09 07:50 UTC NOAA

EGQL 090750Z AUTO 09003KT 9999 SCT010/// SCT050/// BKN090/// 14/11 Q1014


Station Type Date Time Source
EGQL Decoded METAR 2020/07/09 07:50 UTC NOAA

Leuchars, United Kingdom (EGQL) 56-23N 002-52W 0M
Jul 09, 2020 - 03:50 AM EDT / 2020.07.09 0750 UTC
Wind: from the E (090 degrees) at 3 MPH (3 KT):0
Visibility: greater than 7 mile(s):0
Sky conditions: mostly cloudy
Temperature: 57 F (14 C)
Dew Point: 51 F (11 C)
Relative Humidity: 82%
Pressure (altimeter): 29.94 in. Hg (1014 hPa)
ob: EGQL 090750Z AUTO 09003KT 9999 SCT010/// SCT050/// BKN090/// 14/11 Q1014
cycle: 8

Station Type Date Time Source
EGQL TAF 2011/07/27 06:03 UTC NOAA

TAF TAF
AMD EGQL 270424Z 2706/2724 14005KT 9999 BKN020 PROB30
TEMPO 2706/2708 SCT012
BECMG 2708/2710 SCT025

Example: see airport list